createdAt,value
2018-03-30T00:01:58.271Z,93.70
2018-03-30T00:04:25.901Z,93.80
2018-03-30T00:06:53.503Z,93.70
2018-03-30T00:09:32.909Z,93.90
2018-03-30T00:12:01.192Z,93.80
2018-03-30T00:14:28.927Z,93.80
2018-03-30T00:16:56.444Z,93.80
2018-03-30T00:19:23.957Z,93.80
2018-03-30T00:21:51.524Z,93.90
2018-03-30T00:24:19.079Z,93.80
2018-03-30T00:26:46.717Z,93.90
2018-03-30T00:29:15.005Z,93.80
2018-03-30T00:31:43.302Z,93.80
2018-03-30T00:34:10.830Z,93.80
2018-03-30T00:36:38.348Z,93.90
2018-03-30T00:39:05.880Z,93.80
2018-03-30T00:41:33.513Z,93.90
2018-03-30T00:44:01.784Z,93.80
2018-03-30T00:46:30.159Z,94.00
2018-03-30T00:48:57.679Z,94.00
2018-03-30T00:51:25.223Z,93.90
2018-03-30T00:53:52.754Z,93.90
2018-03-30T00:56:20.270Z,94.00
2018-03-30T00:58:47.902Z,93.90
2018-03-30T01:01:15.430Z,94.10
2018-03-30T01:03:42.959Z,94.00
2018-03-30T01:06:11.251Z,94.00
2018-03-30T01:08:38.766Z,94.00
2018-03-30T01:11:10.111Z,94.10
2018-03-30T01:13:37.659Z,94.10
2018-03-30T01:18:49.043Z,94.10
2018-03-30T01:21:23.247Z,94.10
2018-03-30T01:23:50.783Z,94.10
2018-03-30T01:26:19.082Z,94.20
2018-03-30T01:28:46.667Z,94.10
2018-03-30T01:31:14.211Z,94.10
2018-03-30T01:33:41.736Z,94.30
2018-03-30T01:36:09.256Z,94.20
2018-03-30T01:38:36.779Z,94.10
2018-03-30T01:41:04.365Z,94.20
2018-03-30T01:43:31.878Z,94.20
2018-03-30T01:46:00.163Z,94.10
2018-03-30T01:48:28.466Z,94.20
2018-03-30T01:50:56.061Z,94.10
2018-03-30T01:53:23.619Z,94.20
2018-03-30T01:55:51.214Z,94.20
2018-03-30T01:58:19.490Z,94.30
2018-03-30T02:00:47.789Z,94.20
2018-03-30T02:03:16.439Z,94.20
2018-03-30T02:05:44.717Z,94.20
2018-03-30T02:08:13.005Z,94.40
2018-03-30T02:10:41.287Z,94.40
2018-03-30T02:13:08.800Z,94.40
2018-03-30T02:15:36.386Z,94.40
2018-03-30T02:18:04.652Z,94.20
2018-03-30T02:20:32.942Z,94.30
2018-03-30T02:23:01.251Z,94.30
2018-03-30T02:25:28.768Z,94.20
2018-03-30T02:27:56.347Z,94.30
2018-03-30T02:30:24.593Z,94.30
2018-03-30T02:32:52.889Z,94.30
2018-03-30T02:35:21.190Z,94.30
2018-03-30T02:37:48.721Z,94.20
2018-03-30T02:40:17.109Z,94.40
2018-03-30T02:42:45.474Z,94.50
2018-03-30T02:45:13.028Z,94.50
2018-03-30T02:47:40.554Z,94.50
2018-03-30T02:50:08.657Z,94.40
2018-03-30T02:52:37.895Z,94.30
2018-03-30T02:55:05.402Z,94.30
2018-03-30T02:57:32.990Z,94.50
2018-03-30T03:00:02.203Z,94.50
2018-03-30T03:02:30.430Z,94.60
2018-03-30T03:04:57.938Z,94.50
2018-03-30T03:07:25.467Z,94.40
2018-03-30T03:09:53.742Z,94.50
2018-03-30T03:12:22.019Z,94.90
2018-03-30T03:14:50.314Z,94.70
2018-03-30T03:17:17.833Z,94.60
2018-03-30T03:19:45.352Z,94.50
2018-03-30T03:22:12.869Z,94.60
2018-03-30T03:24:41.148Z,94.50
2018-03-30T03:27:08.683Z,94.50
2018-03-30T03:29:36.272Z,94.50
2018-03-30T03:32:03.786Z,94.50
2018-03-30T03:34:31.319Z,94.70
2018-03-30T03:36:58.870Z,94.70
2018-03-30T03:39:26.383Z,95.00
2018-03-30T03:41:53.932Z,94.80
2018-03-30T03:44:21.653Z,94.70
2018-03-30T03:46:49.164Z,94.60
2018-03-30T03:49:16.691Z,94.50
2018-03-30T03:51:44.206Z,94.50
2018-03-30T03:54:11.727Z,94.50
2018-03-30T03:56:39.274Z,94.70
2018-03-30T03:59:06.755Z,94.40
2018-03-30T04:01:34.305Z,94.60
2018-03-30T04:04:01.812Z,94.60
2018-03-30T04:06:29.332Z,94.50
2018-03-30T04:08:56.889Z,94.40
2018-03-30T04:11:25.175Z,94.50
2018-03-30T04:13:53.460Z,94.50
2018-03-30T04:16:20.989Z,94.40
2018-03-30T04:18:48.519Z,94.30
2018-03-30T04:21:16.092Z,94.50
2018-03-30T04:23:43.650Z,94.50
2018-03-30T04:26:11.168Z,94.50
2018-03-30T04:28:38.675Z,94.40
2018-03-30T04:31:06.199Z,94.40
2018-03-30T04:33:33.709Z,94.40
2018-03-30T04:36:01.231Z,94.40
2018-03-30T04:38:28.828Z,94.40
2018-03-30T04:40:56.367Z,94.40
2018-03-30T04:43:23.900Z,94.50
2018-03-30T04:45:51.433Z,94.40
2018-03-30T04:48:19.048Z,94.50
2018-03-30T04:50:47.351Z,94.60
2018-03-30T04:53:14.875Z,94.60
2018-03-30T04:55:42.396Z,94.60
2018-03-30T04:58:09.906Z,94.50
2018-03-30T05:00:37.420Z,94.60
2018-03-30T05:03:04.934Z,94.50
2018-03-30T05:05:33.242Z,94.70
2018-03-30T05:08:01.532Z,94.50
2018-03-30T05:10:29.060Z,94.50
2018-03-30T05:12:56.579Z,94.50
2018-03-30T05:15:24.105Z,94.40
2018-03-30T05:17:51.641Z,94.60
2018-03-30T05:20:19.175Z,94.50
2018-03-30T05:22:47.451Z,94.60
2018-03-30T05:25:15.729Z,94.50
2018-03-30T05:27:44.006Z,94.60
2018-03-30T05:30:12.308Z,94.60
2018-03-30T05:32:39.812Z,94.60
2018-03-30T05:35:07.334Z,94.60
2018-03-30T05:37:34.867Z,94.70
2018-03-30T05:40:03.135Z,94.50
2018-03-30T05:42:31.423Z,94.60
2018-03-30T05:44:58.992Z,94.60
2018-03-30T05:47:26.526Z,94.60
2018-03-30T05:49:54.810Z,94.70
2018-03-30T05:52:22.337Z,94.60
2018-03-30T05:54:49.998Z,94.50
2018-03-30T05:57:19.153Z,94.70
2018-03-30T05:59:46.672Z,94.70
2018-03-30T06:02:14.983Z,94.70
2018-03-30T06:04:42.503Z,94.70
2018-03-30T06:07:10.026Z,94.70
2018-03-30T06:09:37.536Z,94.60
2018-03-30T06:12:05.804Z,94.80
2018-03-30T06:14:34.079Z,94.70
2018-03-30T06:17:02.693Z,94.70
2018-03-30T06:19:30.218Z,94.70
2018-03-30T06:21:58.526Z,94.60
2018-03-30T06:24:26.060Z,94.60
2018-03-30T06:26:53.610Z,94.70
2018-03-30T06:29:21.892Z,94.50
2018-03-30T06:31:50.170Z,94.60
2018-03-30T06:34:18.460Z,94.50
2018-03-30T06:36:45.973Z,94.50
2018-03-30T06:39:13.509Z,94.50
2018-03-30T06:41:41.152Z,94.60
2018-03-30T06:44:08.729Z,94.60
2018-03-30T06:46:36.239Z,94.50
2018-03-30T06:49:03.794Z,94.50
2018-03-30T06:51:32.088Z,94.60
2018-03-30T06:53:59.619Z,94.50
2018-03-30T06:56:27.896Z,94.40
2018-03-30T06:58:56.188Z,94.50
2018-03-30T07:01:24.473Z,94.50
2018-03-30T07:03:52.033Z,94.50
2018-03-30T07:06:19.542Z,94.50
2018-03-30T07:08:47.053Z,94.60
2018-03-30T07:11:14.568Z,94.80
2018-03-30T07:13:42.887Z,94.80
2018-03-30T07:16:11.237Z,94.70
2018-03-30T07:18:39.143Z,94.70
2018-03-30T07:21:06.890Z,94.60
2018-03-30T07:23:34.400Z,94.60
2018-03-30T07:26:01.936Z,94.70
2018-03-30T07:28:29.447Z,94.60
2018-03-30T07:30:57.057Z,94.80
2018-03-30T07:33:24.667Z,94.70
2018-03-30T07:35:52.989Z,94.50
2018-03-30T07:38:20.525Z,94.50
2018-03-30T07:40:48.028Z,94.60
2018-03-30T07:43:15.538Z,94.70
2018-03-30T07:45:43.085Z,94.50
2018-03-30T07:48:11.384Z,94.70
2018-03-30T07:50:38.916Z,94.70
2018-03-30T07:53:06.461Z,94.80
2018-03-30T07:55:33.978Z,94.40
2018-03-30T07:58:01.486Z,94.30
2018-03-30T08:00:29.030Z,94.70
2018-03-30T08:02:56.534Z,94.40
2018-03-30T08:05:24.044Z,94.60
2018-03-30T08:07:53.087Z,94.50
2018-03-30T08:10:20.625Z,94.50
2018-03-30T08:12:48.144Z,94.40
2018-03-30T08:15:16.070Z,94.60
2018-03-30T08:17:43.610Z,94.50
2018-03-30T08:20:11.897Z,94.50
2018-03-30T08:22:39.406Z,94.50
2018-03-30T08:25:07.100Z,94.60
2018-03-30T08:27:34.636Z,94.50
2018-03-30T08:30:02.156Z,94.40
2018-03-30T08:32:29.771Z,94.20
2018-03-30T08:34:58.151Z,94.30
2018-03-30T08:37:25.712Z,94.30
2018-03-30T08:39:53.973Z,94.30
2018-03-30T08:42:21.482Z,94.20
2018-03-30T08:44:49.000Z,94.70
2018-03-30T08:47:16.579Z,94.30
2018-03-30T08:49:44.088Z,94.40
2018-03-30T08:52:14.273Z,94.50
2018-03-30T08:54:41.787Z,94.40
2018-03-30T08:57:10.066Z,94.70
2018-03-30T08:59:37.566Z,94.50
2018-03-30T09:02:05.093Z,94.20
2018-03-30T09:04:33.367Z,94.30
2018-03-30T09:07:01.677Z,94.50
2018-03-30T09:09:29.193Z,94.40
2018-03-30T09:11:56.692Z,94.40
2018-03-30T09:14:24.207Z,94.40
2018-03-30T09:16:52.495Z,94.20
2018-03-30T09:19:20.773Z,94.40
2018-03-30T09:21:49.055Z,94.50
2018-03-30T09:24:17.328Z,94.60
2018-03-30T09:26:45.602Z,94.30
2018-03-30T09:29:13.870Z,93.70
2018-03-30T09:31:42.179Z,93.40
2018-03-30T09:34:09.747Z,93.40
2018-03-30T09:36:37.260Z,93.50
2018-03-30T09:39:05.536Z,93.40
2018-03-30T09:41:33.828Z,93.30
2018-03-30T09:44:02.136Z,92.90
2018-03-30T09:46:29.695Z,92.90
2018-03-30T09:48:57.227Z,92.90
2018-03-30T09:51:24.767Z,92.80
2018-03-30T09:53:52.292Z,92.90
2018-03-30T09:56:19.828Z,92.90
2018-03-30T09:58:47.385Z,92.70
2018-03-30T10:01:16.680Z,92.90
2018-03-30T10:03:51.624Z,92.80
2018-03-30T10:06:19.146Z,93.10
2018-03-30T10:08:46.669Z,93.00
2018-03-30T10:11:14.183Z,91.90
2018-03-30T10:13:41.715Z,91.60
2018-03-30T10:16:09.231Z,91.70
2018-03-30T10:18:36.750Z,92.20
2018-03-30T10:21:04.275Z,91.40
2018-03-30T10:23:32.565Z,92.00
2018-03-30T10:26:00.847Z,91.50
2018-03-30T10:28:28.371Z,91.50
2018-03-30T10:30:55.870Z,91.30
2018-03-30T10:33:23.375Z,91.20
2018-03-30T10:35:50.882Z,91.40
2018-03-30T10:38:18.416Z,91.30
2018-03-30T10:40:45.918Z,90.70
2018-03-30T10:43:13.445Z,91.10
2018-03-30T10:45:41.730Z,90.90
2018-03-30T10:48:09.248Z,90.80
2018-03-30T10:50:36.777Z,90.70
2018-03-30T10:53:04.285Z,90.90
2018-03-30T10:55:32.582Z,90.70
2018-03-30T10:58:00.094Z,90.70
2018-03-30T11:00:27.672Z,90.60
2018-03-30T11:02:55.184Z,90.40
2018-03-30T11:05:22.768Z,90.50
2018-03-30T11:07:50.256Z,90.30
2018-03-30T11:10:18.529Z,90.10
2018-03-30T11:12:46.808Z,90.10
2018-03-30T11:15:15.092Z,90.00
2018-03-30T11:17:43.371Z,90.10
2018-03-30T11:20:11.631Z,89.40
2018-03-30T11:22:39.904Z,89.10
2018-03-30T11:25:09.983Z,89.10
2018-03-30T11:27:37.630Z,89.10
2018-03-30T11:30:05.150Z,89.20
2018-03-30T11:32:33.426Z,89.10
2018-03-30T11:35:01.701Z,90.00
2018-03-30T11:37:30.085Z,88.90
2018-03-30T11:39:58.434Z,89.00
2018-03-30T11:42:25.947Z,89.00
2018-03-30T11:44:53.456Z,88.70
2018-03-30T11:47:21.852Z,88.20
2018-03-30T11:49:50.122Z,87.90
2018-03-30T11:52:18.745Z,87.40
2018-03-30T11:54:46.260Z,87.40
2018-03-30T11:57:13.770Z,88.50
2018-03-30T11:59:41.288Z,87.60
2018-03-30T12:02:08.801Z,87.90
2018-03-30T12:04:36.334Z,87.60
2018-03-30T12:07:03.860Z,84.50
2018-03-30T12:09:31.391Z,83.70
2018-03-30T12:11:58.930Z,84.00
2018-03-30T12:14:26.551Z,83.60
2018-03-30T12:16:54.103Z,82.20
2018-03-30T12:19:22.402Z,82.70
2018-03-30T12:21:49.920Z,82.70
2018-03-30T12:24:18.227Z,81.70
2018-03-30T12:26:45.757Z,81.70
2018-03-30T12:29:13.353Z,82.00
2018-03-30T12:31:40.900Z,81.30
2018-03-30T12:34:08.442Z,80.90
2018-03-30T12:36:35.969Z,79.30
2018-03-30T12:39:03.489Z,78.70
2018-03-30T12:41:30.994Z,79.00
2018-03-30T12:44:00.009Z,76.70
2018-03-30T12:46:27.568Z,76.70
2018-03-30T12:48:55.112Z,76.90
2018-03-30T12:51:22.659Z,77.60
2018-03-30T12:53:50.965Z,70.80
2018-03-30T12:56:18.488Z,70.70
2018-03-30T12:58:46.031Z,71.60
2018-03-30T13:01:13.559Z,71.80
2018-03-30T13:03:41.124Z,71.40
2018-03-30T13:06:09.701Z,70.60
2018-03-30T13:08:37.964Z,70.30
2018-03-30T13:11:05.480Z,70.10
2018-03-30T13:13:33.001Z,66.00
2018-03-30T13:16:01.288Z,64.00
2018-03-30T13:18:29.012Z,63.90
2018-03-30T13:20:56.540Z,60.60
2018-03-30T13:23:24.059Z,59.30
2018-03-30T13:25:51.702Z,61.80
2018-03-30T13:28:20.006Z,59.60
2018-03-30T13:30:47.520Z,59.00
2018-03-30T13:33:15.055Z,57.80
2018-03-30T13:35:42.621Z,57.40
2018-03-30T13:38:10.141Z,56.00
2018-03-30T13:40:37.675Z,54.70
2018-03-30T13:43:05.964Z,52.60
2018-03-30T13:45:33.512Z,52.60
2018-03-30T13:48:01.027Z,52.30
2018-03-30T13:50:44.210Z,52.40
2018-03-30T13:53:12.633Z,52.20
2018-03-30T13:55:41.299Z,51.70
2018-03-30T13:58:10.620Z,51.30
2018-03-30T14:00:42.702Z,50.40
2018-03-30T14:03:10.236Z,49.50
2018-03-30T14:05:43.454Z,48.90
2018-03-30T14:08:15.260Z,50.00
2018-03-30T14:10:46.763Z,49.90
2018-03-30T14:13:14.299Z,49.50
2018-03-30T14:18:43.700Z,48.60
2018-03-30T14:21:12.141Z,49.10
2018-03-30T14:23:40.435Z,51.00
2018-03-30T14:26:15.648Z,51.00
2018-03-30T14:28:46.579Z,51.70
2018-03-30T14:31:17.576Z,50.60
2018-03-30T14:33:45.305Z,50.60
2018-03-30T14:36:21.234Z,49.30
2018-03-30T14:38:56.146Z,50.30
2018-03-30T14:41:23.676Z,50.30
2018-03-30T14:43:53.687Z,49.60
2018-03-30T14:46:42.667Z,49.10
2018-03-30T14:49:13.813Z,49.30
2018-03-30T14:51:44.889Z,47.50
2018-03-30T14:54:17.876Z,46.50
2018-03-30T14:56:45.421Z,47.50
2018-03-30T14:59:16.391Z,45.70
2018-03-30T15:01:53.880Z,46.40
2018-03-30T15:04:32.115Z,45.80
2018-03-30T15:07:02.582Z,45.50
2018-03-30T15:09:36.000Z,44.50
2018-03-30T15:12:12.064Z,45.30
2018-03-30T15:14:40.401Z,45.30
2018-03-30T15:17:32.697Z,44.80
2018-03-30T15:20:04.663Z,45.00
2018-03-30T15:22:51.758Z,44.50
2018-03-30T15:25:24.801Z,44.80
2018-03-30T15:27:55.087Z,44.80
2018-03-30T15:30:36.294Z,45.80
2018-03-30T15:33:06.635Z,46.50
2018-03-30T15:35:34.181Z,46.80
2018-03-30T15:38:02.475Z,45.20
2018-03-30T15:40:30.717Z,45.20
2018-03-30T15:42:59.853Z,45.70
2018-03-30T15:45:44.938Z,45.30
2018-03-30T15:48:12.490Z,46.20
2018-03-30T15:50:40.798Z,46.70
2018-03-30T15:53:23.073Z,46.70
2018-03-30T15:55:51.371Z,48.30
2018-03-30T15:58:18.903Z,48.30
2018-03-30T16:00:47.218Z,48.60
2018-03-30T16:03:14.774Z,48.60
2018-03-30T16:05:42.292Z,48.70
2018-03-30T16:08:09.820Z,49.50
2018-03-30T16:10:41.981Z,50.00
2018-03-30T16:13:09.509Z,50.20
2018-03-30T16:15:37.010Z,50.10
2018-03-30T16:18:04.560Z,49.60
2018-03-30T16:20:31.591Z,49.70
2018-03-30T16:22:58.638Z,49.70
2018-03-30T16:25:25.660Z,50.30
2018-03-30T16:27:52.707Z,50.00
2018-03-30T16:30:19.740Z,50.50
2018-03-30T16:32:47.526Z,51.60
2018-03-30T16:35:14.552Z,51.60
2018-03-30T16:37:41.564Z,52.40
2018-03-30T16:40:08.578Z,52.00
2018-03-30T16:42:35.636Z,52.30
2018-03-30T16:45:02.652Z,52.80
2018-03-30T16:47:29.684Z,52.30
2018-03-30T16:49:57.466Z,52.90
2018-03-30T16:52:24.567Z,52.90
2018-03-30T16:54:51.613Z,53.90
2018-03-30T16:57:18.671Z,55.50
2018-03-30T16:59:45.711Z,56.20
2018-03-30T17:02:12.723Z,57.60
2018-03-30T17:04:39.762Z,58.30
2018-03-30T17:07:06.811Z,58.80
2018-03-30T17:09:33.851Z,59.10
2018-03-30T17:12:00.893Z,59.40
2018-03-30T17:14:27.947Z,59.60
2018-03-30T17:16:54.992Z,60.00
2018-03-30T17:19:22.013Z,60.70
2018-03-30T17:21:49.798Z,60.90
2018-03-30T17:24:16.855Z,60.80
2018-03-30T17:26:43.902Z,61.70
2018-03-30T17:29:11.020Z,61.50
2018-03-30T17:31:38.859Z,63.20
2018-03-30T17:34:05.896Z,63.20
2018-03-30T17:36:33.010Z,63.70
2018-03-30T17:39:00.085Z,63.00
2018-03-30T17:41:27.884Z,64.10
2018-03-30T17:43:55.668Z,64.00
2018-03-30T17:46:22.708Z,64.00
2018-03-30T17:48:50.514Z,64.50
2018-03-30T17:51:17.559Z,64.40
2018-03-30T17:53:44.658Z,64.40
2018-03-30T17:56:12.577Z,65.10
2018-03-30T17:58:39.649Z,65.10
2018-03-30T18:01:06.703Z,65.10
2018-03-30T18:03:33.847Z,65.50
2018-03-30T18:06:00.895Z,65.70
2018-03-30T18:08:27.980Z,66.00
2018-03-30T18:10:55.010Z,66.30
2018-03-30T18:13:22.193Z,66.70
2018-03-30T18:15:49.221Z,66.20
2018-03-30T18:18:16.249Z,67.50
2018-03-30T18:20:44.070Z,68.90
2018-03-30T18:23:11.132Z,68.90
2018-03-30T18:25:38.171Z,68.50
2018-03-30T18:28:05.202Z,69.50
2018-03-30T18:30:32.233Z,69.10
2018-03-30T18:32:59.268Z,69.70
2018-03-30T18:35:27.065Z,70.40
2018-03-30T18:37:54.116Z,70.40
2018-03-30T18:40:21.181Z,70.30
2018-03-30T18:42:48.227Z,70.50
2018-03-30T18:45:15.473Z,70.80
2018-03-30T18:47:42.524Z,70.30
2018-03-30T18:50:10.355Z,71.00
2018-03-30T18:52:37.432Z,70.90
2018-03-30T18:55:04.476Z,71.00
2018-03-30T18:57:31.523Z,70.90
2018-03-30T18:59:58.594Z,71.50
2018-03-30T19:02:25.647Z,71.00
2018-03-30T19:04:52.692Z,71.70
2018-03-30T19:07:19.761Z,72.10
2018-03-30T19:09:47.451Z,71.20
2018-03-30T19:12:14.506Z,71.20
2018-03-30T19:14:41.581Z,71.30
2018-03-30T19:17:08.646Z,71.20
2018-03-30T19:19:35.715Z,71.10
2018-03-30T19:22:03.580Z,71.30
2018-03-30T19:24:30.659Z,71.30
2018-03-30T19:26:57.748Z,71.70
2018-03-30T19:29:24.817Z,72.30
2018-03-30T19:31:51.865Z,72.10
2018-03-30T19:34:18.928Z,72.60
2018-03-30T19:36:45.999Z,72.30
2018-03-30T19:39:13.076Z,72.50
2018-03-30T19:41:40.164Z,73.00
2018-03-30T19:44:07.985Z,73.10
2018-03-30T19:46:35.065Z,72.90
2018-03-30T19:49:02.159Z,72.90
2018-03-30T19:51:29.982Z,73.20
2018-03-30T19:53:58.094Z,72.80
2018-03-30T19:56:25.153Z,72.90
2018-03-30T19:58:52.247Z,73.00
2018-03-30T20:01:19.333Z,73.00
2018-03-30T20:03:46.364Z,72.90
2018-03-30T20:06:13.394Z,73.20
2018-03-30T20:08:40.496Z,73.50
2018-03-30T20:11:07.516Z,74.20
2018-03-30T20:13:34.588Z,73.80
2018-03-30T20:16:02.760Z,74.10
2018-03-30T20:18:29.859Z,74.40
2018-03-30T20:20:57.712Z,74.50
2018-03-30T20:23:24.786Z,74.50
2018-03-30T20:25:51.864Z,75.20
2018-03-30T20:28:18.948Z,75.30
2018-03-30T20:30:46.774Z,75.60
2018-03-30T20:33:13.849Z,75.10
2018-03-30T20:35:41.478Z,75.50
2018-03-30T20:38:08.549Z,75.60
2018-03-30T20:40:35.649Z,75.20
2018-03-30T20:43:02.686Z,75.60
2018-03-30T20:45:31.146Z,75.70
2018-03-30T20:47:59.042Z,76.10
2018-03-30T20:50:26.178Z,76.00
2018-03-30T20:52:53.226Z,75.90
2018-03-30T20:55:20.295Z,76.30
2018-03-30T20:57:47.360Z,76.20
2018-03-30T21:00:14.472Z,76.80
2018-03-30T21:02:41.645Z,76.40
2018-03-30T21:05:09.277Z,76.80
2018-03-30T21:07:36.335Z,76.20
2018-03-30T21:10:03.374Z,76.20
2018-03-30T21:12:30.422Z,76.40
2018-03-30T21:14:58.252Z,76.70
2018-03-30T21:17:26.404Z,76.70
2018-03-30T21:19:53.384Z,76.50
2018-03-30T21:22:20.429Z,76.90
2018-03-30T21:24:47.460Z,77.00
2018-03-30T21:27:14.501Z,77.00
2018-03-30T21:29:41.528Z,76.60
2018-03-30T21:32:08.566Z,76.20
2018-03-30T21:34:35.610Z,76.10
2018-03-30T21:37:02.645Z,76.30
2018-03-30T21:39:29.745Z,76.50
2018-03-30T21:41:57.240Z,76.40
2018-03-30T21:44:24.272Z,76.70
2018-03-30T21:46:51.305Z,76.50
2018-03-30T21:49:18.323Z,76.50
2018-03-30T21:51:45.364Z,76.50
2018-03-30T21:54:12.397Z,76.50
2018-03-30T21:56:39.478Z,76.30
2018-03-30T21:59:06.517Z,76.20
2018-03-30T22:01:35.719Z,76.30
2018-03-30T22:04:02.747Z,76.20
2018-03-30T22:06:29.782Z,76.30
2018-03-30T22:08:56.798Z,75.90
2018-03-30T22:11:23.827Z,76.10
2018-03-30T22:13:50.841Z,76.50
2018-03-30T22:16:17.874Z,76.60
2018-03-30T22:18:44.912Z,76.50
2018-03-30T22:21:12.025Z,76.80
2018-03-30T22:23:39.057Z,76.60
2018-03-30T22:26:06.090Z,76.20
2018-03-30T22:28:33.103Z,76.50
2018-03-30T22:31:01.491Z,75.80
2018-03-30T22:33:28.576Z,75.80
2018-03-30T22:35:55.610Z,75.70
2018-03-30T22:38:22.619Z,76.50
2018-03-30T22:40:49.654Z,76.00
2018-03-30T22:43:16.674Z,76.30
2018-03-30T22:45:44.445Z,76.30
2018-03-30T22:48:12.247Z,76.20
2018-03-30T22:50:39.266Z,76.00
2018-03-30T22:53:06.305Z,76.20
2018-03-30T22:55:33.320Z,75.80
2018-03-30T22:58:00.347Z,75.90
2018-03-30T23:00:27.375Z,76.20
2018-03-30T23:02:54.410Z,75.80
2018-03-30T23:05:21.435Z,76.00
2018-03-30T23:07:49.210Z,77.00
2018-03-30T23:10:16.262Z,76.90
2018-03-30T23:12:43.287Z,76.50
2018-03-30T23:15:10.310Z,76.40
2018-03-30T23:17:37.349Z,76.40
2018-03-30T23:20:05.292Z,76.70
2018-03-30T23:22:32.309Z,76.60
2018-03-30T23:24:59.337Z,76.80
2018-03-30T23:27:26.357Z,77.00
2018-03-30T23:29:53.383Z,76.70
2018-03-30T23:32:20.386Z,77.10
2018-03-30T23:34:48.199Z,76.80
2018-03-30T23:37:16.626Z,76.70
2018-03-30T23:39:43.652Z,76.80
2018-03-30T23:42:10.722Z,77.00
2018-03-30T23:44:37.764Z,77.20
2018-03-30T23:47:05.581Z,76.60
2018-03-30T23:49:32.619Z,76.60
2018-03-30T23:51:59.695Z,77.00
2018-03-30T23:54:26.719Z,77.10
2018-03-30T23:56:54.559Z,77.10
2018-03-30T23:59:21.579Z,77.20
